createdAt,value
2019-03-02T00:00:02.126Z,34.83
2019-03-02T00:02:32.462Z,35.27
2019-03-02T00:05:02.669Z,35.47
2019-03-02T00:07:32.940Z,34.47
2019-03-02T00:10:03.201Z,34.63
2019-03-02T00:12:33.456Z,34.90
2019-03-02T00:15:03.925Z,35.03
2019-03-02T00:17:34.203Z,37.03
2019-03-02T00:20:04.559Z,34.50
2019-03-02T00:22:34.784Z,33.87
2019-03-02T00:25:05.070Z,36.10
2019-03-02T00:27:35.304Z,34.43
2019-03-02T00:30:06.028Z,38.63
2019-03-02T00:32:36.228Z,34.73
2019-03-02T00:35:07.232Z,36.80
2019-03-02T00:37:38.337Z,36.50
2019-03-02T00:40:08.835Z,34.60
2019-03-02T00:42:39.116Z,39.50
2019-03-02T00:45:10.694Z,35.47
2019-03-02T00:47:41.334Z,36.20
2019-03-02T00:50:11.880Z,38.83
2019-03-02T00:52:42.144Z,36.13
2019-03-02T00:55:12.334Z,34.90
2019-03-02T00:57:42.520Z,36.20
2019-03-02T01:00:15.378Z,40.07
2019-03-02T01:02:45.812Z,35.50
2019-03-02T01:05:16.347Z,40.00
2019-03-02T01:07:46.836Z,38.33
2019-03-02T01:10:18.960Z,35.70
2019-03-02T01:12:49.203Z,37.57
2019-03-02T01:15:19.418Z,38.13
2019-03-02T01:17:49.700Z,33.70
2019-03-02T01:20:20.049Z,33.90
2019-03-02T01:22:51.787Z,32.87
2019-03-02T01:25:22.351Z,34.87
2019-03-02T01:27:52.550Z,35.60
2019-03-02T01:30:22.835Z,31.57
2019-03-02T01:32:53.673Z,34.70
2019-03-02T01:35:23.985Z,32.40
2019-03-02T01:37:54.220Z,37.83
2019-03-02T01:40:24.512Z,34.07
2019-03-02T01:42:54.805Z,37.20
2019-03-02T01:45:27.675Z,33.20
2019-03-02T01:47:57.137Z,33.30
2019-03-02T01:50:27.411Z,32.17
2019-03-02T01:52:57.704Z,30.87
2019-03-02T01:55:31.126Z,31.17
2019-03-02T01:57:59.959Z,33.97
2019-03-02T02:00:30.508Z,31.17
2019-03-02T02:03:00.715Z,29.00
2019-03-02T02:05:31.954Z,29.73
2019-03-02T02:08:02.989Z,30.90
2019-03-02T02:10:33.264Z,31.67
2019-03-02T02:13:06.206Z,29.20
2019-03-02T02:15:35.785Z,28.27
2019-03-02T02:18:06.072Z,28.60
2019-03-02T02:20:36.297Z,26.73
2019-03-02T02:23:09.659Z,26.57
2019-03-02T02:25:38.395Z,26.57
2019-03-02T02:28:08.593Z,28.97
2019-03-02T02:30:38.816Z,27.23
2019-03-02T02:33:09.008Z,27.47
2019-03-02T02:35:40.220Z,25.40
2019-03-02T02:38:15.809Z,27.97
2019-03-02T02:40:43.139Z,30.67
2019-03-02T02:43:20.420Z,26.47
2019-03-02T02:45:49.038Z,28.80
2019-03-02T02:48:17.253Z,28.77
2019-03-02T02:50:47.685Z,28.90
2019-03-02T02:53:17.882Z,28.47
2019-03-02T02:55:48.115Z,28.97
2019-03-02T02:58:19.414Z,29.63
2019-03-02T03:00:54.787Z,27.27
2019-03-02T03:03:22.610Z,30.10
2019-03-02T03:05:53.957Z,29.37
2019-03-02T03:08:40.116Z,29.97
2019-03-02T03:11:10.738Z,25.23
2019-03-02T03:13:42.330Z,27.30
2019-03-02T03:16:16.575Z,31.57
2019-03-02T03:18:46.954Z,28.70
2019-03-02T03:21:16.760Z,26.77
2019-03-02T03:23:46.942Z,26.90
2019-03-02T03:26:17.150Z,29.03
2019-03-02T03:28:47.425Z,26.77
2019-03-02T03:31:23.056Z,27.33
2019-03-02T03:33:49.721Z,29.80
2019-03-02T03:36:20.016Z,29.80
2019-03-02T03:38:50.288Z,27.33
2019-03-02T03:41:20.504Z,29.20
2019-03-02T03:43:50.692Z,31.77
2019-03-02T03:46:22.369Z,29.70
2019-03-02T03:48:56.259Z,31.07
2019-03-02T03:51:26.273Z,30.43
2019-03-02T03:54:01.772Z,33.53
2019-03-02T03:56:28.738Z,32.67
2019-03-02T03:58:58.932Z,30.40
2019-03-02T04:01:29.266Z,29.80
2019-03-02T04:03:59.642Z,31.30
2019-03-02T04:06:29.835Z,25.90
2019-03-02T04:09:03.365Z,27.27
2019-03-02T04:11:32.030Z,27.77
2019-03-02T04:14:02.219Z,26.83
2019-03-02T04:16:32.430Z,28.80
2019-03-02T04:19:03.155Z,30.47
2019-03-02T04:21:41.585Z,32.53
2019-03-02T04:24:11.849Z,33.10
2019-03-02T04:26:42.051Z,26.87
2019-03-02T04:29:12.315Z,26.83
2019-03-02T04:31:43.871Z,32.83
2019-03-02T04:34:20.695Z,32.60
2019-03-02T04:36:47.452Z,30.93
2019-03-02T04:39:18.320Z,24.33
2019-03-02T04:41:48.527Z,26.07
2019-03-02T04:44:18.724Z,28.20
2019-03-02T04:46:51.382Z,30.63
2019-03-02T04:49:21.025Z,24.33
2019-03-02T04:51:51.393Z,24.50
2019-03-02T04:54:21.594Z,26.90
2019-03-02T04:56:51.889Z,30.20
2019-03-02T04:59:23.001Z,30.87
2019-03-02T05:01:53.346Z,28.73
2019-03-02T05:04:23.514Z,24.50
2019-03-02T05:06:54.499Z,28.90
2019-03-02T05:09:25.820Z,26.50
2019-03-02T05:11:56.093Z,25.63
2019-03-02T05:14:26.282Z,28.43
2019-03-02T05:16:56.527Z,25.87
2019-03-02T05:19:29.159Z,25.97
2019-03-02T05:21:58.820Z,24.80
2019-03-02T05:24:29.092Z,29.90
2019-03-02T05:26:59.384Z,27.57
2019-03-02T05:29:29.692Z,23.10
2019-03-02T05:31:59.868Z,28.40
2019-03-02T05:34:30.180Z,27.97
2019-03-02T05:37:02.873Z,28.33
2019-03-02T05:39:32.446Z,32.50
2019-03-02T05:42:02.750Z,38.90
2019-03-02T05:44:33.080Z,30.60
2019-03-02T05:47:03.397Z,28.73
2019-03-02T05:49:33.616Z,29.53
2019-03-02T05:52:03.901Z,31.30
2019-03-02T05:54:34.185Z,30.97
2019-03-02T05:57:05.497Z,28.80
2019-03-02T05:59:35.828Z,37.00
2019-03-02T06:02:06.105Z,33.70
2019-03-02T06:04:36.397Z,30.73
2019-03-02T06:07:06.661Z,29.57
2019-03-02T06:09:36.915Z,32.53
2019-03-02T06:12:07.118Z,31.57
2019-03-02T06:14:37.460Z,32.07
2019-03-02T06:17:07.665Z,30.53
2019-03-02T06:19:37.881Z,30.97
2019-03-02T06:22:08.044Z,33.37
2019-03-02T06:24:41.069Z,33.87
2019-03-02T06:27:10.910Z,33.73
2019-03-02T06:29:42.033Z,33.50
2019-03-02T06:32:12.305Z,31.10
2019-03-02T06:34:42.588Z,30.13
2019-03-02T06:37:12.886Z,32.13
2019-03-02T06:39:44.508Z,37.03
2019-03-02T06:42:14.849Z,30.37
2019-03-02T06:44:45.076Z,34.63
2019-03-02T06:47:15.321Z,35.20
2019-03-02T06:49:45.583Z,31.43
2019-03-02T06:52:19.195Z,28.00
2019-03-02T06:54:48.288Z,28.23
2019-03-02T06:57:19.336Z,32.03
2019-03-02T06:59:49.664Z,29.73
2019-03-02T07:02:19.951Z,32.33
2019-03-02T07:04:50.196Z,29.00
2019-03-02T07:07:21.753Z,32.47
2019-03-02T07:09:52.371Z,31.00
2019-03-02T07:12:22.586Z,30.60
2019-03-02T07:14:52.921Z,31.33
2019-03-02T07:17:46.541Z,27.60
2019-03-02T07:20:19.814Z,29.13
2019-03-02T07:22:52.480Z,30.40
2019-03-02T07:25:22.030Z,33.07
2019-03-02T07:27:52.308Z,35.23
2019-03-02T07:30:22.619Z,32.57
2019-03-02T07:32:54.754Z,33.33
2019-03-02T07:35:24.805Z,35.43
2019-03-02T07:37:55.082Z,30.57
2019-03-02T07:40:25.365Z,32.67
2019-03-02T07:42:55.600Z,31.27
2019-03-02T07:45:27.190Z,34.10
2019-03-02T07:48:00.335Z,29.53
2019-03-02T07:50:29.799Z,28.33
2019-03-02T07:53:00.167Z,28.07
2019-03-02T07:55:30.436Z,28.53
2019-03-02T07:58:00.647Z,31.50
2019-03-02T08:00:31.981Z,30.90
2019-03-02T08:03:02.267Z,28.33
2019-03-02T08:05:32.448Z,32.80
2019-03-02T08:08:02.746Z,30.73
2019-03-02T08:10:34.755Z,28.63
2019-03-02T08:13:05.017Z,26.40
2019-03-02T08:15:35.302Z,24.77
2019-03-02T08:18:05.729Z,28.63
2019-03-02T08:20:35.992Z,25.60
2019-03-02T08:23:06.379Z,26.47
2019-03-02T08:25:36.692Z,24.53
2019-03-02T08:28:10.008Z,24.43
2019-03-02T08:30:38.922Z,24.20
2019-03-02T08:33:09.342Z,25.40
2019-03-02T08:35:39.549Z,22.07
2019-03-02T08:38:09.952Z,28.30
2019-03-02T08:40:40.253Z,23.53
2019-03-02T08:43:12.993Z,20.93
2019-03-02T08:45:42.571Z,22.67
2019-03-02T08:48:12.948Z,20.70
2019-03-02T08:50:43.250Z,20.87
2019-03-02T08:53:13.573Z,21.93
2019-03-02T08:55:43.811Z,19.10
2019-03-02T08:58:14.061Z,19.67
2019-03-02T09:00:44.353Z,18.80
2019-03-02T09:03:14.677Z,18.87
2019-03-02T09:05:51.279Z,20.07
2019-03-02T09:08:17.053Z,19.33
2019-03-02T09:10:49.164Z,18.97
2019-03-02T09:13:19.341Z,18.40
2019-03-02T09:15:49.627Z,21.10
2019-03-02T09:18:19.933Z,19.67
2019-03-02T09:20:50.240Z,17.57
2019-03-02T09:23:20.545Z,19.43
2019-03-02T09:25:50.864Z,21.40
2019-03-02T09:28:21.750Z,19.37
2019-03-02T09:30:52.109Z,20.57
2019-03-02T09:33:24.711Z,21.93
2019-03-02T09:35:55.062Z,21.90
2019-03-02T09:38:25.926Z,22.83
2019-03-02T09:40:56.149Z,21.80
2019-03-02T09:43:26.473Z,17.67
2019-03-02T09:45:56.755Z,18.77
2019-03-02T09:48:27.076Z,16.40
2019-03-02T09:50:57.293Z,18.87
2019-03-02T09:53:27.580Z,15.97
2019-03-02T09:55:58.470Z,15.47
2019-03-02T09:58:29.847Z,16.13
2019-03-02T10:01:01.058Z,24.63
2019-03-02T10:03:32.266Z,16.50
2019-03-02T10:06:02.542Z,14.67
2019-03-02T10:08:32.797Z,17.53
2019-03-02T10:11:06.069Z,15.13
2019-03-02T10:13:35.185Z,11.47
2019-03-02T10:16:05.740Z,14.93
2019-03-02T10:18:36.088Z,15.50
2019-03-02T10:21:06.498Z,13.60
2019-03-02T10:23:38.945Z,14.70
2019-03-02T10:26:08.956Z,16.63
2019-03-02T10:28:39.205Z,12.07
2019-03-02T10:31:09.431Z,11.63
2019-03-02T10:33:39.734Z,12.67
2019-03-02T10:36:10.035Z,13.93
2019-03-02T10:38:40.280Z,14.40
2019-03-02T10:41:10.585Z,12.77
2019-03-02T10:43:42.786Z,10.70
2019-03-02T10:46:12.894Z,14.43
2019-03-02T10:48:43.148Z,13.00
2019-03-02T10:51:13.469Z,10.87
2019-03-02T10:53:43.760Z,9.97
2019-03-02T10:56:14.012Z,11.50
2019-03-02T10:58:44.309Z,8.73
2019-03-02T11:01:14.549Z,12.80
2019-03-02T11:03:44.914Z,10.03
2019-03-02T11:06:34.163Z,11.07
2019-03-02T11:09:22.545Z,11.97
2019-03-02T11:12:12.434Z,19.00
2019-03-02T11:15:13.673Z,18.07
2019-03-02T11:18:01.267Z,16.93
2019-03-02T11:20:59.010Z,12.97
2019-03-02T11:23:41.274Z,17.30
2019-03-02T11:26:33.477Z,20.97
2019-03-02T11:29:27.887Z,27.10
2019-03-02T11:32:16.899Z,23.07
2019-03-02T11:35:06.810Z,17.23
2019-03-02T11:37:58.046Z,17.40
2019-03-02T11:40:47.137Z,15.53
2019-03-02T11:43:39.148Z,18.50
2019-03-02T11:46:31.970Z,21.70
2019-03-02T11:49:38.479Z,18.50
2019-03-02T11:52:18.330Z,21.37
2019-03-02T11:55:10.680Z,16.93
2019-03-02T11:57:58.841Z,15.43
2019-03-02T12:00:54.261Z,15.87
2019-03-02T12:03:50.412Z,16.83
2019-03-02T12:06:48.779Z,17.77
2019-03-02T12:09:27.809Z,12.17
2019-03-02T12:12:09.559Z,14.47
2019-03-02T12:14:46.281Z,15.23
2019-03-02T12:17:37.900Z,16.80
2019-03-02T12:20:20.209Z,15.70
2019-03-02T12:23:08.974Z,12.47
2019-03-02T12:25:56.903Z,11.67
2019-03-02T12:28:49.193Z,11.73
2019-03-02T12:31:37.977Z,10.70
2019-03-02T12:34:22.921Z,10.67
2019-03-02T12:37:14.942Z,14.90
2019-03-02T12:40:04.374Z,12.17
2019-03-02T12:42:53.653Z,12.63
2019-03-02T12:45:51.984Z,13.00
2019-03-02T12:48:47.039Z,13.27
2019-03-02T12:51:23.252Z,16.93
2019-03-02T12:54:24.912Z,11.33
2019-03-02T12:57:09.874Z,13.47
2019-03-02T12:59:56.028Z,10.50
2019-03-02T13:02:52.562Z,11.10
2019-03-02T13:05:40.545Z,10.20
2019-03-02T13:08:28.496Z,10.57
2019-03-02T13:11:14.492Z,13.10
2019-03-02T13:14:12.903Z,19.07
2019-03-02T13:16:52.407Z,9.43
2019-03-02T13:19:33.772Z,9.60
2019-03-02T13:22:26.200Z,9.30
2019-03-02T13:25:12.603Z,6.77
2019-03-02T13:28:11.000Z,7.93
2019-03-02T13:31:15.141Z,8.40
2019-03-02T13:34:03.161Z,9.10
2019-03-02T13:36:52.448Z,9.73
2019-03-02T13:39:47.165Z,10.57
2019-03-02T13:42:28.008Z,15.07
2019-03-02T13:45:35.540Z,9.10
2019-03-02T13:48:25.671Z,9.87
2019-03-02T13:51:16.384Z,7.83
2019-03-02T13:54:11.514Z,8.60
2019-03-02T13:57:12.707Z,8.23
2019-03-02T14:00:03.509Z,8.07
2019-03-02T14:02:55.574Z,10.70
2019-03-02T14:05:50.568Z,6.97
2019-03-02T14:08:52.073Z,11.47
2019-03-02T14:11:56.516Z,12.93
2019-03-02T14:14:44.553Z,8.70
2019-03-02T14:17:40.704Z,7.43
2019-03-02T14:20:38.767Z,9.93
2019-03-02T14:23:15.587Z,10.33
2019-03-02T14:25:51.099Z,10.37
2019-03-02T14:28:40.335Z,10.00
2019-03-02T14:31:20.018Z,12.23
2019-03-02T14:34:12.076Z,11.20
2019-03-02T14:36:50.633Z,12.23
2019-03-02T14:39:30.497Z,10.23
2019-03-02T14:42:07.975Z,8.80
2019-03-02T14:44:56.637Z,12.33
2019-03-02T14:47:55.085Z,10.27
2019-03-02T14:50:45.161Z,12.03
2019-03-02T14:53:32.930Z,13.43
2019-03-02T14:56:13.802Z,10.07
2019-03-02T14:59:01.967Z,12.60
2019-03-02T15:01:51.255Z,11.63
2019-03-02T15:04:45.264Z,11.50
2019-03-02T15:07:37.332Z,11.47
2019-03-02T15:10:26.717Z,11.67
2019-03-02T15:13:11.356Z,13.47
2019-03-02T15:16:05.939Z,10.30
2019-03-02T15:18:53.819Z,12.23
2019-03-02T15:21:34.890Z,10.03
2019-03-02T15:24:22.510Z,14.30
2019-03-02T15:27:06.441Z,11.13
2019-03-02T15:29:58.756Z,13.87
2019-03-02T15:32:47.998Z,13.17
2019-03-02T15:35:33.664Z,12.47
2019-03-02T15:38:17.454Z,12.33
2019-03-02T15:40:59.294Z,11.47
2019-03-02T15:43:48.568Z,9.10
2019-03-02T15:46:52.755Z,14.90
2019-03-02T15:49:47.925Z,10.67
2019-03-02T15:52:26.362Z,11.80
2019-03-02T15:55:12.080Z,10.83
2019-03-02T15:58:01.347Z,10.10
2019-03-02T16:00:53.419Z,10.43
2019-03-02T16:03:35.129Z,8.93
2019-03-02T16:06:19.644Z,8.27
2019-03-02T16:09:05.494Z,10.83
2019-03-02T16:11:49.366Z,11.00
2019-03-02T16:14:44.677Z,13.13
2019-03-02T16:17:22.327Z,9.60
2019-03-02T16:20:18.521Z,9.67
2019-03-02T16:23:09.694Z,11.50
2019-03-02T16:26:04.166Z,9.33
2019-03-02T16:28:42.569Z,10.60
2019-03-02T16:31:24.099Z,10.73
2019-03-02T16:34:12.555Z,9.00
2019-03-02T16:37:00.309Z,12.13
2019-03-02T16:39:44.759Z,12.90
2019-03-02T16:42:34.024Z,8.77
2019-03-02T16:45:15.379Z,16.57
2019-03-02T16:48:11.385Z,12.70
2019-03-02T16:50:58.150Z,15.27
2019-03-02T16:53:53.668Z,10.73
2019-03-02T16:56:34.623Z,12.03
2019-03-02T16:59:32.236Z,9.80
2019-03-02T17:02:26.952Z,13.00
2019-03-02T17:05:16.206Z,19.87
2019-03-02T17:08:11.479Z,11.27
2019-03-02T17:11:01.054Z,10.63
2019-03-02T17:13:37.988Z,9.77
2019-03-02T17:16:25.664Z,14.20
2019-03-02T17:19:14.479Z,14.80
2019-03-02T17:21:52.861Z,12.80
2019-03-02T17:24:50.945Z,11.90
2019-03-02T17:27:31.052Z,14.57
2019-03-02T17:30:35.232Z,12.27
2019-03-02T17:33:17.465Z,15.60
2019-03-02T17:36:05.763Z,12.37
2019-03-02T17:38:48.708Z,15.13
2019-03-02T17:41:51.352Z,14.37
2019-03-02T17:44:32.414Z,12.97
2019-03-02T17:47:10.066Z,18.50
2019-03-02T17:50:16.236Z,27.43
2019-03-02T17:53:05.346Z,58.30
2019-03-02T17:56:06.743Z,26.10
2019-03-02T17:58:55.595Z,17.80
2019-03-02T18:01:49.037Z,20.80
2019-03-02T18:04:37.129Z,16.50
2019-03-02T18:07:24.477Z,20.57
2019-03-02T18:10:28.632Z,20.63
2019-03-02T18:13:20.398Z,20.00
2019-03-02T18:16:08.082Z,18.63
2019-03-02T18:18:38.369Z,20.00
2019-03-02T18:21:08.728Z,13.87
2019-03-02T18:23:39.091Z,20.97
2019-03-02T18:26:11.112Z,24.20
2019-03-02T18:28:41.358Z,19.77
2019-03-02T18:31:11.574Z,22.40
2019-03-02T18:33:51.018Z,19.10
2019-03-02T18:36:21.317Z,20.43
2019-03-02T18:38:51.615Z,18.37
2019-03-02T18:41:21.808Z,17.30
2019-03-02T18:43:52.130Z,14.20
2019-03-02T18:46:22.435Z,11.60
2019-03-02T18:49:13.875Z,12.57
2019-03-02T18:52:10.232Z,17.90
2019-03-02T18:54:40.623Z,13.40
2019-03-02T18:57:13.218Z,8.10
2019-03-02T18:59:43.394Z,14.60
2019-03-02T19:02:15.096Z,17.37
2019-03-02T19:04:46.332Z,12.03
2019-03-02T19:07:16.646Z,11.80
2019-03-02T19:09:46.953Z,12.70
2019-03-02T19:12:17.288Z,13.43
2019-03-02T19:14:47.615Z,11.10
2019-03-02T19:17:17.912Z,13.50
2019-03-02T19:19:48.207Z,18.07
2019-03-02T19:22:18.433Z,10.23
2019-03-02T19:24:48.833Z,12.07
2019-03-02T19:27:19.113Z,14.07
2019-03-02T19:29:49.449Z,11.83
2019-03-02T19:32:19.825Z,8.30
2019-03-02T19:34:50.049Z,7.37
2019-03-02T19:37:20.352Z,11.50
2019-03-02T19:39:50.699Z,12.80
2019-03-02T19:42:20.919Z,13.53
2019-03-02T19:44:51.166Z,12.33
2019-03-02T19:47:21.451Z,12.50
2019-03-02T19:49:51.832Z,12.63
2019-03-02T19:52:22.198Z,14.87
2019-03-02T19:54:52.407Z,12.50
2019-03-02T19:57:22.710Z,14.27
2019-03-02T19:59:52.918Z,13.40
2019-03-02T20:02:23.237Z,9.73
2019-03-02T20:04:53.471Z,11.47
2019-03-02T20:07:23.796Z,10.80
2019-03-02T20:09:54.097Z,10.20
2019-03-02T20:12:24.438Z,15.07
2019-03-02T20:14:54.874Z,12.47
2019-03-02T20:17:25.207Z,11.57
2019-03-02T20:19:55.441Z,10.73
2019-03-02T20:22:25.785Z,9.97
2019-03-02T20:24:56.110Z,10.23
2019-03-02T20:27:26.401Z,9.73
2019-03-02T20:29:56.709Z,11.43
2019-03-02T20:32:27.045Z,12.20
2019-03-02T20:34:57.344Z,11.87
2019-03-02T20:37:27.628Z,7.83
2019-03-02T20:39:57.905Z,16.23
2019-03-02T20:42:28.235Z,10.33
2019-03-02T20:44:58.556Z,8.17
2019-03-02T20:47:28.913Z,15.00
2019-03-02T20:49:59.291Z,9.47
2019-03-02T20:52:29.593Z,8.67
2019-03-02T20:54:59.915Z,8.83
2019-03-02T20:57:30.145Z,9.53
2019-03-02T21:00:00.398Z,8.47
2019-03-02T21:02:30.766Z,7.73
2019-03-02T21:05:01.060Z,10.73
2019-03-02T21:07:31.421Z,9.87
2019-03-02T21:10:01.752Z,7.57
2019-03-02T21:12:32.060Z,7.33
2019-03-02T21:15:02.368Z,10.67
2019-03-02T21:17:32.694Z,11.27
2019-03-02T21:20:03.142Z,7.97
2019-03-02T21:22:33.498Z,7.47
2019-03-02T21:25:04.016Z,9.60
2019-03-02T21:27:34.346Z,8.43
2019-03-02T21:30:05.257Z,8.77
2019-03-02T21:32:35.616Z,14.50
2019-03-02T21:35:06.320Z,8.63
2019-03-02T21:37:36.638Z,6.73
2019-03-02T21:40:12.516Z,9.23
2019-03-02T21:42:42.840Z,7.53
2019-03-02T21:45:15.038Z,4.13
2019-03-02T21:47:45.734Z,5.93
2019-03-02T21:50:18.265Z,5.23
2019-03-02T21:52:48.581Z,4.90
2019-03-02T21:55:19.011Z,4.90
2019-03-02T21:57:49.249Z,4.03
2019-03-02T22:00:21.720Z,8.00
2019-03-02T22:02:52.353Z,7.53
2019-03-02T22:05:22.676Z,8.90
2019-03-02T22:07:53.197Z,4.70
2019-03-02T22:10:29.021Z,7.20
2019-03-02T22:12:59.390Z,9.03
2019-03-02T22:15:30.125Z,3.20
2019-03-02T22:18:00.446Z,4.70
2019-03-02T22:20:30.834Z,3.97
2019-03-02T22:23:01.133Z,4.43
2019-03-02T22:25:31.480Z,3.67
2019-03-02T22:28:01.850Z,4.37
2019-03-02T22:30:32.168Z,6.57
2019-03-02T22:33:02.500Z,2.03
2019-03-02T22:35:32.823Z,6.80
2019-03-02T22:38:03.122Z,7.73
2019-03-02T22:40:33.360Z,5.10
2019-03-02T22:43:03.770Z,5.23
2019-03-02T22:45:34.182Z,4.53
2019-03-02T22:48:04.514Z,5.00
2019-03-02T22:50:35.001Z,2.70
2019-03-02T22:53:05.229Z,3.37
2019-03-02T22:55:35.526Z,1.17
2019-03-02T22:58:05.936Z,2.80
2019-03-02T23:01:20.661Z,3.57
2019-03-02T23:03:50.908Z,2.37
2019-03-02T23:06:21.224Z,1.87
2019-03-02T23:08:51.507Z,2.73
2019-03-02T23:11:21.828Z,2.63
2019-03-02T23:13:52.048Z,2.20
2019-03-02T23:16:22.364Z,3.53
2019-03-02T23:18:52.599Z,1.77
2019-03-02T23:21:22.823Z,3.60
2019-03-02T23:23:53.345Z,1.83
2019-03-02T23:26:23.623Z,3.13
2019-03-02T23:28:53.935Z,2.00
2019-03-02T23:31:24.141Z,2.83
2019-03-02T23:33:54.357Z,2.63
2019-03-02T23:36:24.685Z,2.70
2019-03-02T23:38:55.011Z,3.33
2019-03-02T23:41:25.296Z,1.57
2019-03-02T23:43:55.531Z,3.40
2019-03-02T23:46:25.812Z,2.93
2019-03-02T23:48:56.110Z,1.40
2019-03-02T23:51:26.349Z,1.63
2019-03-02T23:53:56.654Z,3.57
2019-03-02T23:56:26.944Z,2.50
2019-03-02T23:58:57.234Z,2.83
